ADDS METAR Data INFO
IDs: Format: Raw Decoded Include TAF

Data at: 1718 UTC 23 Oct 2017

KLHZ 231700Z AUTO 15013G18KT 10SM BKN029 BKN036 24/18 A3009 RMK AO2
KLHZ 231640Z AUTO 14008G15KT 10SM SCT025 SCT050 25/18 A3010 RMK AO2
KLHZ 231620Z AUTO 13007KT 10SM BKN025 OVC060 23/18 A3011 RMK AO2
KLHZ 231600Z AUTO 15005KT 10SM SCT023 OVC060 22/18 A3012 RMK AO2
KLHZ 231540Z AUTO 16007KT 10SM SCT023 OVC055 22/18 A3013 RMK AO2
KLHZ 231520Z AUTO 13005KT 10SM SCT047 BKN055 21/18 A3015 RMK AO2
KLHZ 231500Z AUTO 12005KT 10SM SCT047 OVC055 21/17 A3015 RMK AO2
KLHZ 231440Z AUTO 13004KT 10SM BKN047 OVC055 20/17 A3017 RMK AO2
KLHZ 231420Z AUTO 13004KT 10SM SCT041 OVC047 19/17 A3018 RMK AO2
KLHZ 231400Z AUTO 12005KT 10SM BKN041 OVC049 18/17 A3018 RMK AO2
KLHZ 231340Z AUTO 12004KT 10SM OVC041 17/17 A3019 RMK AO2
KLHZ 231320Z AUTO 13003KT 10SM BKN041 OVC048 17/17 A3020 RMK AO2
KLHZ 231300Z AUTO 00000KT 10SM OVC046 16/16 A3020 RMK AO2
KLHZ 231240Z AUTO 00000KT 7SM BKN047 OVC050 16/16 A3020 RMK AO2
KLHZ 231220Z AUTO 00000KT 7SM OVC060 15/15 A3020 RMK AO2
KLHZ 231200Z AUTO 00000KT 7SM OVC060 15/15 A3021 RMK AO2
KLHZ 231140Z AUTO 00000KT 7SM OVC060 15/15 A3021 RMK AO2
KLHZ 231120Z AUTO 00000KT 3/4SM BR OVC060 14/14 A3022 RMK AO2
KLHZ 231100Z AUTO 00000KT 1SM BR OVC060 14/14 A3021 RMK AO2
KLHZ 231040Z AUTO 00000KT 1 1/4SM BR OVC060 13/13 A3022 RMK AO2
KLHZ 231020Z AUTO 00000KT 1/4SM FG BKN001 OVC060 13/13 A3023 RMK AO2
KLHZ 231000Z AUTO 00000KT M1/4SM FG OVC001 13/13 A3023 RMK AO2
KLHZ 230940Z AUTO 00000KT M1/4SM FG OVC001 13/13 A3023 RMK AO2
KLHZ 230920Z AUTO 00000KT 1 3/4SM BR BKN001 BKN070 13/13 A3024 RMK AO2
KLHZ 230900Z AUTO 00000KT M1/4SM FG OVC001 13/13 A3024 RMK AO2
KLHZ 230840Z AUTO 00000KT M1/4SM FG OVC001 13/13 A3024 RMK AO2
KLHZ 230820Z AUTO 00000KT M1/4SM FG VV000 13/13 A3024 RMK AO2
KLHZ 230800Z AUTO 00000KT M1/4SM FG VV000 13/13 A3025 RMK AO2
KLHZ 230740Z AUTO 00000KT 1/4SM FG VV002 15/15 A3025 RMK AO2
KLHZ 230720Z AUTO 00000KT 5SM BR CLR 15/15 A3026 RMK AO2
KLHZ 230700Z AUTO 00000KT 10SM CLR 15/15 A3026 RMK AO2
KLHZ 230640Z AUTO 00000KT 7SM CLR 15/15 A3026 RMK AO2
KLHZ 230620Z AUTO 00000KT 7SM CLR 15/15 A3027 RMK AO2
KLHZ 230600Z AUTO 00000KT 10SM CLR 15/15 A3027 RMK AO2
KLHZ 230540Z AUTO 00000KT 10SM CLR 16/16 A3028 RMK AO2
KLHZ 230520Z AUTO 00000KT 10SM CLR 15/15 A3028 RMK AO2
KLHZ 230500Z AUTO 00000KT 10SM CLR 15/15 A3029 RMK AO2
KLHZ 230440Z AUTO 00000KT 10SM CLR 15/15 A3029 RMK AO2
KLHZ 230420Z AUTO 00000KT 10SM CLR 16/15 A3029 RMK AO2
KLHZ 230400Z AUTO 15003KT 10SM SCT039 16/15 A3030 RMK AO2
KLHZ 230340Z AUTO 00000KT 10SM SCT040 BKN050 17/15 A3031 RMK AO2
KLHZ 230320Z AUTO 00000KT 10SM OVC038 16/15 A3031 RMK AO2
KLHZ 230300Z AUTO 00000KT 10SM BKN038 15/15 A3032 RMK AO2
KLHZ 230240Z AUTO 00000KT 10SM SCT040 BKN045 17/15 A3032 RMK AO2
KLHZ 230220Z AUTO 14003KT 10SM BKN040 BKN046 16/15 A3033 RMK AO2
KLHZ 230200Z AUTO 00000KT 10SM SCT038 16/15 A3033 RMK AO2
KLHZ 230140Z AUTO 00000KT 10SM SCT050 16/15 A3032 RMK AO2
KLHZ 230120Z AUTO 00000KT 10SM BKN050 16/15 A3032 RMK AO2
KLHZ 230100Z AUTO 00000KT 10SM BKN050 16/15 A3032 RMK AO2
KLHZ 230040Z AUTO 00000KT 10SM CLR 16/14 A3031 RMK AO2
KLHZ 230020Z AUTO 00000KT 10SM CLR 16/15 A3031 RMK AO2
KLHZ 230000Z AUTO 00000KT 10SM CLR 16/14 A3031 RMK AO2
KLHZ 222340Z AUTO 00000KT 10SM CLR 16/15 A3032 RMK AO2
KLHZ 222320Z AUTO 00000KT 10SM CLR 16/15 A3031 RMK AO2
KLHZ 222300Z AUTO 00000KT 10SM CLR 17/15 A3030 RMK AO2
KLHZ 222240Z AUTO 00000KT 10SM CLR 18/15 A3030 RMK AO2
KLHZ 222220Z AUTO 00000KT 10SM CLR 19/16 A3030 RMK AO2
KLHZ 222200Z AUTO 00000KT 10SM CLR 20/16 A3030 RMK AO2
KLHZ 222140Z AUTO 00000KT 10SM CLR 23/14 A3029 RMK AO2
KLHZ 222120Z AUTO 14004KT 10SM CLR 23/14 A3029 RMK AO2
KLHZ 222100Z AUTO 15005KT 10SM CLR 24/13 A3030 RMK AO2
KLHZ 222040Z AUTO 16005KT 10SM CLR 25/12 A3030 RMK AO2
KLHZ 222020Z AUTO 13003KT 10SM CLR 25/12 A3030 RMK AO2
KLHZ 222000Z AUTO 11003KT 10SM CLR 25/12 A3031 RMK AO2
KLHZ 221940Z AUTO 14003KT 10SM CLR 25/13 A3031 RMK AO2
KLHZ 221920Z AUTO 19004KT 10SM CLR 25/12 A3032 RMK AO2
KLHZ 221900Z AUTO 11004KT 10SM CLR 25/12 A3032 RMK AO2
KLHZ 221840Z AUTO 18003KT 10SM CLR 25/13 A3033 RMK AO2
KLHZ 221820Z AUTO 16004KT 10SM CLR 25/12 A3033 RMK AO2
KLHZ 221800Z AUTO 14004KT 10SM CLR 24/12 A3034 RMK AO2
KLHZ 221740Z AUTO 17004KT 10SM CLR 24/12 A3035 RMK AO2
KLHZ 221720Z AUTO 00000KT 10SM CLR 24/13 A3036 RMK AO2
KLHZ 221700Z AUTO 13003KT 10SM CLR 23/13 A3037 RMK AO2
KLHZ 221640Z AUTO 10006KT 10SM CLR 23/12 A3038 RMK AO2
KLHZ 221620Z AUTO 14004KT 10SM CLR 23/13 A3039 RMK AO2
KLHZ 221440Z AUTO 00000KT 10SM CLR 20/14 A3040 RMK AO2
KLHZ 221420Z AUTO 00000KT 10SM CLR 18/15 A3040 RMK AO2
KLHZ 221400Z AUTO 00000KT 10SM CLR 17/15 A3040 RMK AO2
KLHZ 221340Z AUTO 00000KT 10SM CLR 16/15 A3040 RMK AO2
KLHZ 221320Z AUTO 00000KT 7SM CLR 14/13 A3041 RMK AO2
KLHZ 221300Z AUTO 00000KT 5SM BR CLR 13/13 A3040 RMK AO2
KLHZ 221240Z AUTO 00000KT 7SM CLR 11/11 A3040 RMK AO2
KLHZ 221220Z AUTO 00000KT 7SM CLR 10/10 A3040 RMK AO2
KLHZ 221200Z AUTO 00000KT 5SM BR CLR 10/10 A3039 RMK AO2
KLHZ 221140Z AUTO 00000KT 5SM BR CLR 10/10 A3038 RMK AO2
KLHZ 221120Z AUTO 00000KT 5SM BR CLR 10/10 A3038 RMK AO2
KLHZ 221100Z AUTO 00000KT 5SM BR CLR 10/10 A3038 RMK AO2
KLHZ 221040Z AUTO 00000KT 5SM BR CLR 10/10 A3037 RMK AO2
KLHZ 221020Z AUTO 00000KT 4SM BR CLR 10/10 A3037 RMK AO2
KLHZ 221000Z AUTO 00000KT 7SM CLR 10/10 A3037 RMK AO2
KLHZ 220940Z AUTO 00000KT 5SM BR CLR 10/10 A3036 RMK AO2
KLHZ 220920Z AUTO 00000KT 7SM CLR 10/10 A3036 RMK AO2
KLHZ 220900Z AUTO 00000KT 5SM BR CLR 10/10 A3036 RMK AO2
KLHZ 220840Z AUTO 00000KT 7SM CLR 10/10 A3036 RMK AO2
KLHZ 220820Z AUTO 00000KT 7SM CLR 10/10 A3035 RMK AO2
KLHZ 220800Z AUTO 00000KT 5SM BR CLR 10/10 A3036 RMK AO2
KLHZ 220740Z AUTO 00000KT 5SM BR CLR 11/11 A3036 RMK AO2
KLHZ 220720Z AUTO 00000KT 4SM BR CLR 11/11 A3036 RMK AO2
KLHZ 220700Z AUTO 00000KT 4SM BR CLR 11/11 A3036 RMK AO2
KLHZ 220640Z AUTO 00000KT 3SM BR CLR 11/11 A3036 RMK AO2
KLHZ 220620Z AUTO 00000KT 5SM BR CLR 12/12 A3036 RMK AO2
KLHZ 220600Z AUTO 00000KT 10SM CLR 12/12 A3036 RMK AO2
KLHZ 220540Z AUTO 00000KT 7SM CLR 12/12 A3036 RMK AO2
KLHZ 220520Z AUTO 00000KT 7SM CLR 12/12 A3036 RMK AO2